sensor_id;sensor_type;location;lat;lon;timestamp;P1;durP1;ratioP1;P2;durP2;ratioP2
79005;SDS011;69202;45.498;-73.582;2023-07-20T00:01:27;1.80;;;1.70;;
79005;SDS011;69202;45.498;-73.582;2023-07-20T00:03:53;3.47;;;1.70;;
79005;SDS011;69202;45.498;-73.582;2023-07-20T00:06:23;3.17;;;1.80;;
79005;SDS011;69202;45.498;-73.582;2023-07-20T00:08:51;3.35;;;1.90;;
79005;SDS011;69202;45.498;-73.582;2023-07-20T00:11:17;3.53;;;2.20;;
79005;SDS011;69202;45.498;-73.582;2023-07-20T00:13:43;3.90;;;1.77;;
79005;SDS011;69202;45.498;-73.582;2023-07-20T00:16:09;2.22;;;2.00;;
79005;SDS011;69202;45.498;-73.582;2023-07-20T00:18:35;2.13;;;1.92;;
79005;SDS011;69202;45.498;-73.582;2023-07-20T00:21:01;3.17;;;1.88;;
79005;SDS011;69202;45.498;-73.582;2023-07-20T00:23:27;4.07;;;1.90;;
79005;SDS011;69202;45.498;-73.582;2023-07-20T00:25:53;3.30;;;2.00;;
79005;SDS011;69202;45.498;-73.582;2023-07-20T00:28:20;3.88;;;2.03;;
79005;SDS011;69202;45.498;-73.582;2023-07-20T00:30:45;2.33;;;1.50;;
79005;SDS011;69202;45.498;-73.582;2023-07-20T00:33:12;2.38;;;1.83;;
79005;SDS011;69202;45.498;-73.582;2023-07-20T00:35:38;3.10;;;1.80;;
79005;SDS011;69202;45.498;-73.582;2023-07-20T00:38:05;2.13;;;1.58;;
79005;SDS011;69202;45.498;-73.582;2023-07-20T00:40:37;2.25;;;1.75;;
79005;SDS011;69202;45.498;-73.582;2023-07-20T00:43:04;6.60;;;2.28;;
79005;SDS011;69202;45.498;-73.582;2023-07-20T00:45:30;2.33;;;1.98;;
79005;SDS011;69202;45.498;-73.582;2023-07-20T00:47:58;1.63;;;1.42;;
79005;SDS011;69202;45.498;-73.582;2023-07-20T00:50:25;2.33;;;1.90;;
79005;SDS011;69202;45.498;-73.582;2023-07-20T00:52:51;1.88;;;1.77;;
79005;SDS011;69202;45.498;-73.582;2023-07-20T00:55:18;3.78;;;2.20;;
79005;SDS011;69202;45.498;-73.582;2023-07-20T00:57:44;3.83;;;2.30;;
79005;SDS011;69202;45.498;-73.582;2023-07-20T01:00:11;2.88;;;2.13;;
79005;SDS011;69202;45.498;-73.582;2023-07-20T01:02:38;2.92;;;2.10;;
79005;SDS011;69202;45.498;-73.582;2023-07-20T01:05:04;2.58;;;2.17;;
79005;SDS011;69202;45.498;-73.582;2023-07-20T01:10:42;3.30;;;2.38;;
79005;SDS011;69202;45.498;-73.582;2023-07-20T01:13:11;2.15;;;1.95;;
79005;SDS011;69202;45.498;-73.582;2023-07-20T01:15:40;5.57;;;2.28;;
79005;SDS011;69202;45.498;-73.582;2023-07-20T01:18:06;5.50;;;2.25;;
79005;SDS011;69202;45.498;-73.582;2023-07-20T01:20:33;3.75;;;1.80;;
79005;SDS011;69202;45.498;-73.582;2023-07-20T01:25:53;5.25;;;1.90;;
79005;SDS011;69202;45.498;-73.582;2023-07-20T01:28:41;4.68;;;2.45;;
79005;SDS011;69202;45.498;-73.582;2023-07-20T01:31:19;2.30;;;2.10;;
79005;SDS011;69202;45.498;-73.582;2023-07-20T01:33:48;5.35;;;2.00;;
79005;SDS011;69202;45.498;-73.582;2023-07-20T01:36:17;2.30;;;2.10;;
79005;SDS011;69202;45.498;-73.582;2023-07-20T01:38:44;6.88;;;2.17;;
79005;SDS011;69202;45.498;-73.582;2023-07-20T01:41:12;3.30;;;2.20;;
79005;SDS011;69202;45.498;-73.582;2023-07-20T01:43:38;2.70;;;1.98;;
79005;SDS011;69202;45.498;-73.582;2023-07-20T01:46:04;2.75;;;2.10;;
79005;SDS011;69202;45.498;-73.582;2023-07-20T01:48:30;3.17;;;2.05;;
79005;SDS011;69202;45.498;-73.582;2023-07-20T01:50:56;5.50;;;1.85;;
79005;SDS011;69202;45.498;-73.582;2023-07-20T01:53:22;6.00;;;2.00;;
79005;SDS011;69202;45.498;-73.582;2023-07-20T01:55:48;4.40;;;1.88;;
79005;SDS011;69202;45.498;-73.582;2023-07-20T01:58:13;8.45;;;2.13;;
79005;SDS011;69202;45.498;-73.582;2023-07-20T02:00:39;2.40;;;1.70;;
79005;SDS011;69202;45.498;-73.582;2023-07-20T02:03:05;4.95;;;1.98;;
79005;SDS011;69202;45.498;-73.582;2023-07-20T02:05:31;3.22;;;2.05;;
79005;SDS011;69202;45.498;-73.582;2023-07-20T02:07:57;6.03;;;2.00;;
79005;SDS011;69202;45.498;-73.582;2023-07-20T02:10:23;2.30;;;2.10;;
79005;SDS011;69202;45.498;-73.582;2023-07-20T02:12:49;4.15;;;2.28;;
79005;SDS011;69202;45.498;-73.582;2023-07-20T02:15:15;2.55;;;1.85;;
79005;SDS011;69202;45.498;-73.582;2023-07-20T02:17:44;3.05;;;1.90;;
79005;SDS011;69202;45.498;-73.582;2023-07-20T02:20:10;4.05;;;2.10;;
79005;SDS011;69202;45.498;-73.582;2023-07-20T02:22:37;3.03;;;1.77;;
79005;SDS011;69202;45.498;-73.582;2023-07-20T02:25:04;3.53;;;1.85;;
79005;SDS011;69202;45.498;-73.582;2023-07-20T02:27:30;3.85;;;1.80;;
79005;SDS011;69202;45.498;-73.582;2023-07-20T02:29:56;2.13;;;1.92;;
79005;SDS011;69202;45.498;-73.582;2023-07-20T02:32:22;2.72;;;1.60;;
79005;SDS011;69202;45.498;-73.582;2023-07-20T02:34:48;1.60;;;1.40;;
79005;SDS011;69202;45.498;-73.582;2023-07-20T02:37:14;3.33;;;1.80;;
79005;SDS011;69202;45.498;-73.582;2023-07-20T02:39:41;1.92;;;1.80;;
79005;SDS011;69202;45.498;-73.582;2023-07-20T02:42:07;2.33;;;2.00;;
79005;SDS011;69202;45.498;-73.582;2023-07-20T02:44:33;2.88;;;1.63;;
79005;SDS011;69202;45.498;-73.582;2023-07-20T02:46:59;3.00;;;2.22;;
79005;SDS011;69202;45.498;-73.582;2023-07-20T02:49:26;2.03;;;1.85;;
79005;SDS011;69202;45.498;-73.582;2023-07-20T02:51:52;2.67;;;1.65;;
79005;SDS011;69202;45.498;-73.582;2023-07-20T02:54:18;2.28;;;1.50;;
79005;SDS011;69202;45.498;-73.582;2023-07-20T02:56:44;2.70;;;2.20;;
79005;SDS011;69202;45.498;-73.582;2023-07-20T02:59:10;2.15;;;1.83;;
79005;SDS011;69202;45.498;-73.582;2023-07-20T03:01:36;4.03;;;2.10;;
79005;SDS011;69202;45.498;-73.582;2023-07-20T03:04:02;3.72;;;2.05;;
79005;SDS011;69202;45.498;-73.582;2023-07-20T03:06:29;3.10;;;1.80;;
79005;SDS011;69202;45.498;-73.582;2023-07-20T03:08:55;2.03;;;1.83;;
79005;SDS011;69202;45.498;-73.582;2023-07-20T03:11:21;5.40;;;2.20;;
79005;SDS011;69202;45.498;-73.582;2023-07-20T03:13:47;3.50;;;2.20;;
79005;SDS011;69202;45.498;-73.582;2023-07-20T03:16:14;3.67;;;2.25;;
79005;SDS011;69202;45.498;-73.582;2023-07-20T03:18:43;5.45;;;2.10;;
79005;SDS011;69202;45.498;-73.582;2023-07-20T03:21:09;4.82;;;2.10;;
79005;SDS011;69202;45.498;-73.582;2023-07-20T03:23:39;3.38;;;2.03;;
79005;SDS011;69202;45.498;-73.582;2023-07-20T03:26:06;4.53;;;1.90;;
79005;SDS011;69202;45.498;-73.582;2023-07-20T03:28:35;4.38;;;2.00;;
79005;SDS011;69202;45.498;-73.582;2023-07-20T03:31:04;2.00;;;1.45;;
79005;SDS011;69202;45.498;-73.582;2023-07-20T03:33:30;3.88;;;1.50;;
79005;SDS011;69202;45.498;-73.582;2023-07-20T03:35:57;3.30;;;2.20;;
79005;SDS011;69202;45.498;-73.582;2023-07-20T03:38:23;2.10;;;1.90;;
79005;SDS011;69202;45.498;-73.582;2023-07-20T03:40:50;4.47;;;2.00;;
79005;SDS011;69202;45.498;-73.582;2023-07-20T03:43:17;3.17;;;2.17;;
79005;SDS011;69202;45.498;-73.582;2023-07-20T03:45:43;3.38;;;2.05;;
79005;SDS011;69202;45.498;-73.582;2023-07-20T03:48:10;3.25;;;2.25;;
79005;SDS011;69202;45.498;-73.582;2023-07-20T03:50:37;5.45;;;2.30;;
79005;SDS011;69202;45.498;-73.582;2023-07-20T03:53:03;4.65;;;2.45;;
79005;SDS011;69202;45.498;-73.582;2023-07-20T03:55:29;6.03;;;2.38;;
79005;SDS011;69202;45.498;-73.582;2023-07-20T03:57:56;5.60;;;2.53;;
79005;SDS011;69202;45.498;-73.582;2023-07-20T04:00:21;5.53;;;2.08;;
79005;SDS011;69202;45.498;-73.582;2023-07-20T04:02:47;2.97;;;2.30;;
79005;SDS011;69202;45.498;-73.582;2023-07-20T04:05:13;1.85;;;1.73;;
79005;SDS011;69202;45.498;-73.582;2023-07-20T04:07:39;2.60;;;1.60;;
79005;SDS011;69202;45.498;-73.582;2023-07-20T04:10:05;3.40;;;1.80;;
79005;SDS011;69202;45.498;-73.582;2023-07-20T04:12:31;5.15;;;2.13;;
79005;SDS011;69202;45.498;-73.582;2023-07-20T04:14:58;8.50;;;2.25;;
79005;SDS011;69202;45.498;-73.582;2023-07-20T04:17:24;3.35;;;2.50;;
79005;SDS011;69202;45.498;-73.582;2023-07-20T04:19:49;2.58;;;1.58;;
79005;SDS011;69202;45.498;-73.582;2023-07-20T04:22:15;1.95;;;1.70;;
79005;SDS011;69202;45.498;-73.582;2023-07-20T04:24:42;2.42;;;2.08;;
79005;SDS011;69202;45.498;-73.582;2023-07-20T04:27:08;1.65;;;1.30;;
79005;SDS011;69202;45.498;-73.582;2023-07-20T04:29:34;2.58;;;1.52;;
79005;SDS011;69202;45.498;-73.582;2023-07-20T04:32:00;2.30;;;2.10;;
79005;SDS011;69202;45.498;-73.582;2023-07-20T04:34:26;2.10;;;1.90;;
79005;SDS011;69202;45.498;-73.582;2023-07-20T04:36:52;2.35;;;1.90;;
79005;SDS011;69202;45.498;-73.582;2023-07-20T04:39:18;2.15;;;1.70;;
79005;SDS011;69202;45.498;-73.582;2023-07-20T04:41:45;2.15;;;1.80;;
79005;SDS011;69202;45.498;-73.582;2023-07-20T04:44:11;2.58;;;1.55;;
79005;SDS011;69202;45.498;-73.582;2023-07-20T04:46:39;1.42;;;1.30;;
79005;SDS011;69202;45.498;-73.582;2023-07-20T04:49:05;2.90;;;2.05;;
79005;SDS011;69202;45.498;-73.582;2023-07-20T04:51:31;1.95;;;1.70;;
79005;SDS011;69202;45.498;-73.582;2023-07-20T04:53:57;2.05;;;1.90;;
79005;SDS011;69202;45.498;-73.582;2023-07-20T04:56:24;2.00;;;1.80;;
79005;SDS011;69202;45.498;-73.582;2023-07-20T04:58:50;3.85;;;2.20;;
79005;SDS011;69202;45.498;-73.582;2023-07-20T05:01:16;5.97;;;2.00;;
79005;SDS011;69202;45.498;-73.582;2023-07-20T05:03:42;2.63;;;2.13;;
79005;SDS011;69202;45.498;-73.582;2023-07-20T05:06:08;6.15;;;2.10;;
79005;SDS011;69202;45.498;-73.582;2023-07-20T05:08:34;4.25;;;2.17;;
79005;SDS011;69202;45.498;-73.582;2023-07-20T05:11:00;2.83;;;2.10;;
79005;SDS011;69202;45.498;-73.582;2023-07-20T05:13:25;3.05;;;2.40;;
79005;SDS011;69202;45.498;-73.582;2023-07-20T05:15:52;2.50;;;1.98;;
79005;SDS011;69202;45.498;-73.582;2023-07-20T05:18:18;3.50;;;2.40;;
79005;SDS011;69202;45.498;-73.582;2023-07-20T05:20:46;2.55;;;2.13;;
79005;SDS011;69202;45.498;-73.582;2023-07-20T05:23:13;3.90;;;2.20;;
79005;SDS011;69202;45.498;-73.582;2023-07-20T05:25:39;3.15;;;2.42;;
79005;SDS011;69202;45.498;-73.582;2023-07-20T05:28:05;8.27;;;2.00;;
79005;SDS011;69202;45.498;-73.582;2023-07-20T05:30:31;4.88;;;2.60;;
79005;SDS011;69202;45.498;-73.582;2023-07-20T05:32:57;3.78;;;2.47;;
79005;SDS011;69202;45.498;-73.582;2023-07-20T05:35:23;3.72;;;2.38;;
79005;SDS011;69202;45.498;-73.582;2023-07-20T05:37:49;5.50;;;2.53;;
79005;SDS011;69202;45.498;-73.582;2023-07-20T05:40:15;3.35;;;2.50;;
79005;SDS011;69202;45.498;-73.582;2023-07-20T05:42:44;3.20;;;2.45;;
79005;SDS011;69202;45.498;-73.582;2023-07-20T05:45:14;3.08;;;2.58;;
79005;SDS011;69202;45.498;-73.582;2023-07-20T05:47:41;3.13;;;2.45;;
79005;SDS011;69202;45.498;-73.582;2023-07-20T05:50:07;4.22;;;2.55;;
79005;SDS011;69202;45.498;-73.582;2023-07-20T05:52:34;6.63;;;2.50;;
79005;SDS011;69202;45.498;-73.582;2023-07-20T05:55:00;3.17;;;2.45;;
79005;SDS011;69202;45.498;-73.582;2023-07-20T05:57:26;4.55;;;2.72;;
79005;SDS011;69202;45.498;-73.582;2023-07-20T05:59:52;3.70;;;2.25;;
79005;SDS011;69202;45.498;-73.582;2023-07-20T06:02:18;4.38;;;2.42;;
79005;SDS011;69202;45.498;-73.582;2023-07-20T06:04:44;7.32;;;2.50;;
79005;SDS011;69202;45.498;-73.582;2023-07-20T06:07:10;7.50;;;3.05;;
79005;SDS011;69202;45.498;-73.582;2023-07-20T06:09:36;6.22;;;2.72;;
79005;SDS011;69202;45.498;-73.582;2023-07-20T06:12:02;5.60;;;2.97;;
79005;SDS011;69202;45.498;-73.582;2023-07-20T06:14:28;7.32;;;2.60;;
79005;SDS011;69202;45.498;-73.582;2023-07-20T06:16:55;8.73;;;3.38;;
79005;SDS011;69202;45.498;-73.582;2023-07-20T06:19:20;5.00;;;2.28;;
79005;SDS011;69202;45.498;-73.582;2023-07-20T06:21:47;5.18;;;2.53;;
79005;SDS011;69202;45.498;-73.582;2023-07-20T06:24:15;6.07;;;3.00;;
79005;SDS011;69202;45.498;-73.582;2023-07-20T06:26:41;4.47;;;2.80;;
79005;SDS011;69202;45.498;-73.582;2023-07-20T06:29:07;4.80;;;2.78;;
79005;SDS011;69202;45.498;-73.582;2023-07-20T06:31:36;4.55;;;2.70;;
79005;SDS011;69202;45.498;-73.582;2023-07-20T06:34:03;8.75;;;3.42;;
79005;SDS011;69202;45.498;-73.582;2023-07-20T06:36:29;6.20;;;3.20;;
79005;SDS011;69202;45.498;-73.582;2023-07-20T06:38:55;9.05;;;3.05;;
79005;SDS011;69202;45.498;-73.582;2023-07-20T06:41:21;6.93;;;3.03;;
79005;SDS011;69202;45.498;-73.582;2023-07-20T06:43:47;9.10;;;3.58;;
79005;SDS011;69202;45.498;-73.582;2023-07-20T06:46:13;7.70;;;3.70;;
79005;SDS011;69202;45.498;-73.582;2023-07-20T06:48:39;6.88;;;3.60;;
79005;SDS011;69202;45.498;-73.582;2023-07-20T06:51:05;9.02;;;3.90;;
79005;SDS011;69202;45.498;-73.582;2023-07-20T06:53:31;8.57;;;4.20;;
79005;SDS011;69202;45.498;-73.582;2023-07-20T06:55:57;8.90;;;4.05;;
79005;SDS011;69202;45.498;-73.582;2023-07-20T06:58:23;7.47;;;3.72;;
79005;SDS011;69202;45.498;-73.582;2023-07-20T07:00:49;9.40;;;4.22;;
79005;SDS011;69202;45.498;-73.582;2023-07-20T07:03:15;6.30;;;3.88;;
79005;SDS011;69202;45.498;-73.582;2023-07-20T07:05:42;10.63;;;4.18;;
79005;SDS011;69202;45.498;-73.582;2023-07-20T07:08:10;9.00;;;4.05;;
79005;SDS011;69202;45.498;-73.582;2023-07-20T07:10:36;6.47;;;3.88;;
79005;SDS011;69202;45.498;-73.582;2023-07-20T07:13:02;8.50;;;4.05;;
79005;SDS011;69202;45.498;-73.582;2023-07-20T07:15:29;5.93;;;3.80;;
79005;SDS011;69202;45.498;-73.582;2023-07-20T07:17:54;8.48;;;3.92;;
79005;SDS011;69202;45.498;-73.582;2023-07-20T07:20:21;6.05;;;3.90;;
79005;SDS011;69202;45.498;-73.582;2023-07-20T07:22:49;7.88;;;3.80;;
79005;SDS011;69202;45.498;-73.582;2023-07-20T07:25:17;8.13;;;3.53;;
79005;SDS011;69202;45.498;-73.582;2023-07-20T07:27:43;5.63;;;3.30;;
79005;SDS011;69202;45.498;-73.582;2023-07-20T07:30:09;6.80;;;3.28;;
79005;SDS011;69202;45.498;-73.582;2023-07-20T07:32:35;7.85;;;3.45;;
79005;SDS011;69202;45.498;-73.582;2023-07-20T07:35:01;6.32;;;3.00;;
79005;SDS011;69202;45.498;-73.582;2023-07-20T07:37:27;5.45;;;3.10;;
79005;SDS011;69202;45.498;-73.582;2023-07-20T07:39:53;6.05;;;2.83;;
79005;SDS011;69202;45.498;-73.582;2023-07-20T07:42:19;7.32;;;3.08;;
79005;SDS011;69202;45.498;-73.582;2023-07-20T07:44:45;6.05;;;2.58;;
79005;SDS011;69202;45.498;-73.582;2023-07-20T07:47:11;3.58;;;3.00;;
79005;SDS011;69202;45.498;-73.582;2023-07-20T07:49:37;5.65;;;3.00;;
79005;SDS011;69202;45.498;-73.582;2023-07-20T07:52:03;5.60;;;3.03;;
79005;SDS011;69202;45.498;-73.582;2023-07-20T07:54:29;6.05;;;3.20;;
79005;SDS011;69202;45.498;-73.582;2023-07-20T07:56:56;4.70;;;2.65;;
79005;SDS011;69202;45.498;-73.582;2023-07-20T07:59:22;5.97;;;2.90;;
79005;SDS011;69202;45.498;-73.582;2023-07-20T08:01:48;4.45;;;2.80;;
79005;SDS011;69202;45.498;-73.582;2023-07-20T08:04:13;3.88;;;2.67;;
79005;SDS011;69202;45.498;-73.582;2023-07-20T08:06:39;5.03;;;2.80;;
79005;SDS011;69202;45.498;-73.582;2023-07-20T08:09:05;4.28;;;2.50;;
79005;SDS011;69202;45.498;-73.582;2023-07-20T08:11:31;7.65;;;2.88;;
79005;SDS011;69202;45.498;-73.582;2023-07-20T08:13:59;4.78;;;3.03;;
79005;SDS011;69202;45.498;-73.582;2023-07-20T08:16:26;3.08;;;2.70;;
79005;SDS011;69202;45.498;-73.582;2023-07-20T08:18:52;3.17;;;2.45;;
79005;SDS011;69202;45.498;-73.582;2023-07-20T08:21:18;2.95;;;2.60;;
79005;SDS011;69202;45.498;-73.582;2023-07-20T08:23:44;3.08;;;2.83;;
79005;SDS011;69202;45.498;-73.582;2023-07-20T08:26:09;4.72;;;2.75;;
79005;SDS011;69202;45.498;-73.582;2023-07-20T08:28:35;4.03;;;2.50;;
79005;SDS011;69202;45.498;-73.582;2023-07-20T08:31:01;5.63;;;2.95;;
79005;SDS011;69202;45.498;-73.582;2023-07-20T08:33:28;3.92;;;2.83;;
79005;SDS011;69202;45.498;-73.582;2023-07-20T08:35:58;3.65;;;2.55;;
79005;SDS011;69202;45.498;-73.582;2023-07-20T08:38:24;3.10;;;2.40;;
79005;SDS011;69202;45.498;-73.582;2023-07-20T08:40:51;4.00;;;2.70;;
79005;SDS011;69202;45.498;-73.582;2023-07-20T08:43:19;4.22;;;2.58;;
79005;SDS011;69202;45.498;-73.582;2023-07-20T08:45:48;4.70;;;2.65;;
79005;SDS011;69202;45.498;-73.582;2023-07-20T08:48:17;7.88;;;3.15;;
79005;SDS011;69202;45.498;-73.582;2023-07-20T08:50:44;4.30;;;3.13;;
79005;SDS011;69202;45.498;-73.582;2023-07-20T08:53:12;9.18;;;2.80;;
79005;SDS011;69202;45.498;-73.582;2023-07-20T08:55:39;5.05;;;2.80;;
79005;SDS011;69202;45.498;-73.582;2023-07-20T08:58:08;4.60;;;2.42;;
79005;SDS011;69202;45.498;-73.582;2023-07-20T09:00:41;3.65;;;2.55;;
79005;SDS011;69202;45.498;-73.582;2023-07-20T09:03:08;2.47;;;2.25;;
79005;SDS011;69202;45.498;-73.582;2023-07-20T09:05:34;4.40;;;2.95;;
79005;SDS011;69202;45.498;-73.582;2023-07-20T09:08:01;5.63;;;3.05;;
79005;SDS011;69202;45.498;-73.582;2023-07-20T09:10:29;4.18;;;3.15;;
79005;SDS011;69202;45.498;-73.582;2023-07-20T09:12:55;7.82;;;3.30;;
79005;SDS011;69202;45.498;-73.582;2023-07-20T09:15:21;6.13;;;2.90;;
79005;SDS011;69202;45.498;-73.582;2023-07-20T09:17:48;7.55;;;2.90;;
79005;SDS011;69202;45.498;-73.582;2023-07-20T09:20:16;2.80;;;2.60;;
79005;SDS011;69202;45.498;-73.582;2023-07-20T09:22:43;5.53;;;3.08;;
79005;SDS011;69202;45.498;-73.582;2023-07-20T09:25:13;7.28;;;3.30;;
79005;SDS011;69202;45.498;-73.582;2023-07-20T09:27:41;9.30;;;3.25;;
79005;SDS011;69202;45.498;-73.582;2023-07-20T09:30:09;6.15;;;3.08;;
79005;SDS011;69202;45.498;-73.582;2023-07-20T09:32:45;5.18;;;3.40;;
79005;SDS011;69202;45.498;-73.582;2023-07-20T09:35:15;5.32;;;4.00;;
79005;SDS011;69202;45.498;-73.582;2023-07-20T09:37:53;7.00;;;3.33;;
79005;SDS011;69202;45.498;-73.582;2023-07-20T09:40:19;7.00;;;3.50;;
79005;SDS011;69202;45.498;-73.582;2023-07-20T09:42:46;7.55;;;3.50;;
79005;SDS011;69202;45.498;-73.582;2023-07-20T09:45:13;6.18;;;3.85;;
79005;SDS011;69202;45.498;-73.582;2023-07-20T09:47:39;6.70;;;3.20;;
79005;SDS011;69202;45.498;-73.582;2023-07-20T09:50:06;5.35;;;3.28;;
79005;SDS011;69202;45.498;-73.582;2023-07-20T09:52:41;6.05;;;3.40;;
79005;SDS011;69202;45.498;-73.582;2023-07-20T09:55:09;5.57;;;3.42;;
79005;SDS011;69202;45.498;-73.582;2023-07-20T09:57:39;7.07;;;4.13;;
79005;SDS011;69202;45.498;-73.582;2023-07-20T10:00:05;4.07;;;3.58;;
79005;SDS011;69202;45.498;-73.582;2023-07-20T10:02:43;8.75;;;3.58;;
79005;SDS011;69202;45.498;-73.582;2023-07-20T10:05:11;3.80;;;3.40;;
79005;SDS011;69202;45.498;-73.582;2023-07-20T10:07:40;5.28;;;3.30;;
79005;SDS011;69202;45.498;-73.582;2023-07-20T10:10:16;5.35;;;3.25;;
79005;SDS011;69202;45.498;-73.582;2023-07-20T10:12:43;6.18;;;3.28;;
79005;SDS011;69202;45.498;-73.582;2023-07-20T10:15:29;3.40;;;3.10;;
79005;SDS011;69202;45.498;-73.582;2023-07-20T10:18:09;5.40;;;3.40;;
79005;SDS011;69202;45.498;-73.582;2023-07-20T10:20:40;9.02;;;3.40;;
79005;SDS011;69202;45.498;-73.582;2023-07-20T10:23:07;9.38;;;3.25;;
79005;SDS011;69202;45.498;-73.582;2023-07-20T10:25:33;3.70;;;3.22;;
79005;SDS011;69202;45.498;-73.582;2023-07-20T10:28:06;5.03;;;3.75;;
79005;SDS011;69202;45.498;-73.582;2023-07-20T10:30:33;5.57;;;3.20;;
79005;SDS011;69202;45.498;-73.582;2023-07-20T10:33:03;5.63;;;3.22;;
79005;SDS011;69202;45.498;-73.582;2023-07-20T10:35:31;4.82;;;3.30;;
79005;SDS011;69202;45.498;-73.582;2023-07-20T10:38:17;7.93;;;3.30;;
79005;SDS011;69202;45.498;-73.582;2023-07-20T10:40:43;5.50;;;3.38;;
79005;SDS011;69202;45.498;-73.582;2023-07-20T10:43:20;7.65;;;4.50;;
79005;SDS011;69202;45.498;-73.582;2023-07-20T10:45:50;12.27;;;4.20;;
79005;SDS011;69202;45.498;-73.582;2023-07-20T10:53:42;9.15;;;3.60;;
79005;SDS011;69202;45.498;-73.582;2023-07-20T10:56:12;7.68;;;4.05;;
79005;SDS011;69202;45.498;-73.582;2023-07-20T10:58:42;12.10;;;4.25;;
79005;SDS011;69202;45.498;-73.582;2023-07-20T11:01:08;11.85;;;4.45;;
79005;SDS011;69202;45.498;-73.582;2023-07-20T11:03:39;10.50;;;5.15;;
79005;SDS011;69202;45.498;-73.582;2023-07-20T11:08:56;12.50;;;5.00;;
79005;SDS011;69202;45.498;-73.582;2023-07-20T11:11:34;13.18;;;4.72;;
79005;SDS011;69202;45.498;-73.582;2023-07-20T11:14:06;14.23;;;5.15;;
79005;SDS011;69202;45.498;-73.582;2023-07-20T11:16:51;20.02;;;5.35;;
79005;SDS011;69202;45.498;-73.582;2023-07-20T11:19:19;13.90;;;5.70;;
79005;SDS011;69202;45.498;-73.582;2023-07-20T11:21:50;17.80;;;5.38;;
79005;SDS011;69202;45.498;-73.582;2023-07-20T11:24:18;15.30;;;6.32;;
79005;SDS011;69202;45.498;-73.582;2023-07-20T11:26:45;13.82;;;5.25;;
79005;SDS011;69202;45.498;-73.582;2023-07-20T11:29:19;13.70;;;5.65;;
79005;SDS011;69202;45.498;-73.582;2023-07-20T11:31:48;13.57;;;5.57;;
79005;SDS011;69202;45.498;-73.582;2023-07-20T11:34:15;20.60;;;5.72;;
79005;SDS011;69202;45.498;-73.582;2023-07-20T11:36:44;12.23;;;5.32;;
79005;SDS011;69202;45.498;-73.582;2023-07-20T11:39:11;16.13;;;5.25;;
79005;SDS011;69202;45.498;-73.582;2023-07-20T11:41:43;13.57;;;5.55;;
79005;SDS011;69202;45.498;-73.582;2023-07-20T11:44:11;17.95;;;5.30;;
79005;SDS011;69202;45.498;-73.582;2023-07-20T11:46:41;15.30;;;5.65;;
79005;SDS011;69202;45.498;-73.582;2023-07-20T11:49:08;17.25;;;5.72;;
79005;SDS011;69202;45.498;-73.582;2023-07-20T11:51:34;14.13;;;5.63;;
79005;SDS011;69202;45.498;-73.582;2023-07-20T11:54:03;15.00;;;6.03;;
79005;SDS011;69202;45.498;-73.582;2023-07-20T11:56:30;18.38;;;6.35;;
79005;SDS011;69202;45.498;-73.582;2023-07-20T11:58:59;17.80;;;6.63;;
79005;SDS011;69202;45.498;-73.582;2023-07-20T12:01:27;18.00;;;6.70;;
79005;SDS011;69202;45.498;-73.582;2023-07-20T12:03:57;24.77;;;6.90;;
79005;SDS011;69202;45.498;-73.582;2023-07-20T12:06:27;21.35;;;6.55;;
79005;SDS011;69202;45.498;-73.582;2023-07-20T12:08:54;21.23;;;6.05;;
79005;SDS011;69202;45.498;-73.582;2023-07-20T12:14:04;13.20;;;4.25;;
79005;SDS011;69202;45.498;-73.582;2023-07-20T12:16:33;5.20;;;3.10;;
79005;SDS011;69202;45.498;-73.582;2023-07-20T12:21:30;15.90;;;5.68;;
79005;SDS011;69202;45.498;-73.582;2023-07-20T12:23:57;13.82;;;5.75;;
79005;SDS011;69202;45.498;-73.582;2023-07-20T12:26:24;11.73;;;5.50;;
79005;SDS011;69202;45.498;-73.582;2023-07-20T12:28:51;16.23;;;5.43;;
79005;SDS011;69202;45.498;-73.582;2023-07-20T12:31:18;13.30;;;5.78;;
79005;SDS011;69202;45.498;-73.582;2023-07-20T12:33:44;15.10;;;5.38;;
79005;SDS011;69202;45.498;-73.582;2023-07-20T12:36:10;11.93;;;5.15;;
79005;SDS011;69202;45.498;-73.582;2023-07-20T12:38:36;17.90;;;5.57;;
79005;SDS011;69202;45.498;-73.582;2023-07-20T12:41:02;15.02;;;5.22;;
79005;SDS011;69202;45.498;-73.582;2023-07-20T12:43:28;13.55;;;5.32;;
79005;SDS011;69202;45.498;-73.582;2023-07-20T12:45:55;18.88;;;5.38;;
79005;SDS011;69202;45.498;-73.582;2023-07-20T12:48:22;13.98;;;4.68;;
79005;SDS011;69202;45.498;-73.582;2023-07-20T12:50:48;11.20;;;5.65;;
79005;SDS011;69202;45.498;-73.582;2023-07-20T12:53:14;13.00;;;5.30;;
79005;SDS011;69202;45.498;-73.582;2023-07-20T12:55:40;11.38;;;5.43;;
79005;SDS011;69202;45.498;-73.582;2023-07-20T12:58:09;10.05;;;5.40;;
79005;SDS011;69202;45.498;-73.582;2023-07-20T13:00:35;18.73;;;5.43;;
79005;SDS011;69202;45.498;-73.582;2023-07-20T13:03:01;10.95;;;5.13;;
79005;SDS011;69202;45.498;-73.582;2023-07-20T13:05:32;9.93;;;4.72;;
79005;SDS011;69202;45.498;-73.582;2023-07-20T13:07:58;5.65;;;3.67;;
79005;SDS011;69202;45.498;-73.582;2023-07-20T13:10:24;7.00;;;3.63;;
79005;SDS011;69202;45.498;-73.582;2023-07-20T13:12:50;13.93;;;5.32;;
79005;SDS011;69202;45.498;-73.582;2023-07-20T13:15:17;13.35;;;5.60;;
79005;SDS011;69202;45.498;-73.582;2023-07-20T13:17:43;12.02;;;5.18;;
79005;SDS011;69202;45.498;-73.582;2023-07-20T13:20:10;11.32;;;5.25;;
79005;SDS011;69202;45.498;-73.582;2023-07-20T13:22:36;13.18;;;5.38;;
79005;SDS011;69202;45.498;-73.582;2023-07-20T13:25:03;10.23;;;5.20;;
79005;SDS011;69202;45.498;-73.582;2023-07-20T13:27:31;9.90;;;4.10;;
79005;SDS011;69202;45.498;-73.582;2023-07-20T13:29:58;14.30;;;5.05;;
79005;SDS011;69202;45.498;-73.582;2023-07-20T13:32:25;12.25;;;4.50;;
79005;SDS011;69202;45.498;-73.582;2023-07-20T13:34:51;13.02;;;4.05;;
79005;SDS011;69202;45.498;-73.582;2023-07-20T13:37:17;9.85;;;4.38;;
79005;SDS011;69202;45.498;-73.582;2023-07-20T13:39:46;8.57;;;3.42;;
79005;SDS011;69202;45.498;-73.582;2023-07-20T13:42:12;10.20;;;4.10;;
79005;SDS011;69202;45.498;-73.582;2023-07-20T13:44:38;6.47;;;3.70;;
79005;SDS011;69202;45.498;-73.582;2023-07-20T13:47:04;16.63;;;4.53;;
79005;SDS011;69202;45.498;-73.582;2023-07-20T13:49:32;10.70;;;4.07;;
79005;SDS011;69202;45.498;-73.582;2023-07-20T13:52:01;8.10;;;4.35;;
79005;SDS011;69202;45.498;-73.582;2023-07-20T13:54:27;12.07;;;3.97;;
79005;SDS011;69202;45.498;-73.582;2023-07-20T13:56:53;7.32;;;4.40;;
79005;SDS011;69202;45.498;-73.582;2023-07-20T13:59:19;6.35;;;4.20;;
79005;SDS011;69202;45.498;-73.582;2023-07-20T14:01:44;7.97;;;4.40;;
79005;SDS011;69202;45.498;-73.582;2023-07-20T14:04:11;7.68;;;4.60;;
79005;SDS011;69202;45.498;-73.582;2023-07-20T14:06:37;7.13;;;4.20;;
79005;SDS011;69202;45.498;-73.582;2023-07-20T14:09:03;4.18;;;3.70;;
79005;SDS011;69202;45.498;-73.582;2023-07-20T14:11:29;5.07;;;2.70;;
79005;SDS011;69202;45.498;-73.582;2023-07-20T14:13:55;6.07;;;4.40;;
79005;SDS011;69202;45.498;-73.582;2023-07-20T14:16:23;9.63;;;4.70;;
79005;SDS011;69202;45.498;-73.582;2023-07-20T14:18:49;9.23;;;4.50;;
79005;SDS011;69202;45.498;-73.582;2023-07-20T14:21:16;4.43;;;2.90;;
79005;SDS011;69202;45.498;-73.582;2023-07-20T14:23:47;7.20;;;5.40;;
79005;SDS011;69202;45.498;-73.582;2023-07-20T14:26:14;9.50;;;5.40;;
79005;SDS011;69202;45.498;-73.582;2023-07-20T14:28:41;10.48;;;5.18;;
79005;SDS011;69202;45.498;-73.582;2023-07-20T14:31:07;9.10;;;4.72;;
79005;SDS011;69202;45.498;-73.582;2023-07-20T14:33:33;11.27;;;4.60;;
79005;SDS011;69202;45.498;-73.582;2023-07-20T14:35:59;6.22;;;3.65;;
79005;SDS011;69202;45.498;-73.582;2023-07-20T14:38:27;6.43;;;3.03;;